sensor_id;sensor_type;location;lat;lon;timestamp;pressure;altitude;pressure_sealevel;temperature;humidity
48652;BME280;34442;52.362;-1.302;2022-10-16T00:02:07;98936.50;;;13.28;100.00
48652;BME280;34442;52.362;-1.302;2022-10-16T00:04:33;98938.09;;;13.24;100.00
48652;BME280;34442;52.362;-1.302;2022-10-16T00:06:59;98944.91;;;13.32;100.00
48652;BME280;34442;52.362;-1.302;2022-10-16T00:09:25;98941.59;;;13.25;100.00
48652;BME280;34442;52.362;-1.302;2022-10-16T00:11:51;98932.28;;;13.05;100.00
48652;BME280;34442;52.362;-1.302;2022-10-16T00:14:17;98943.09;;;13.10;100.00
48652;BME280;34442;52.362;-1.302;2022-10-16T00:16:43;98953.31;;;13.08;100.00
48652;BME280;34442;52.362;-1.302;2022-10-16T00:19:11;98946.91;;;13.14;100.00
48652;BME280;34442;52.362;-1.302;2022-10-16T00:21:38;98954.56;;;13.23;100.00
48652;BME280;34442;52.362;-1.302;2022-10-16T00:24:07;98955.09;;;13.25;100.00
48652;BME280;34442;52.362;-1.302;2022-10-16T00:26:35;98953.47;;;13.24;100.00
48652;BME280;34442;52.362;-1.302;2022-10-16T00:29:02;98951.59;;;13.24;100.00
48652;BME280;34442;52.362;-1.302;2022-10-16T00:31:28;98956.66;;;13.21;100.00
48652;BME280;34442;52.362;-1.302;2022-10-16T00:33:55;98955.03;;;13.20;100.00
48652;BME280;34442;52.362;-1.302;2022-10-16T00:36:23;98948.09;;;13.24;100.00
48652;BME280;34442;52.362;-1.302;2022-10-16T00:38:50;98952.63;;;13.18;100.00
48652;BME280;34442;52.362;-1.302;2022-10-16T00:41:19;98947.50;;;13.22;100.00
48652;BME280;34442;52.362;-1.302;2022-10-16T00:46:21;98949.63;;;13.14;100.00
48652;BME280;34442;52.362;-1.302;2022-10-16T00:49:06;98944.88;;;13.27;100.00
48652;BME280;34442;52.362;-1.302;2022-10-16T00:51:40;98949.19;;;13.28;100.00
48652;BME280;34442;52.362;-1.302;2022-10-16T00:54:10;98942.72;;;13.29;100.00
48652;BME280;34442;52.362;-1.302;2022-10-16T00:56:37;98940.00;;;13.24;100.00
48652;BME280;34442;52.362;-1.302;2022-10-16T00:59:06;98949.41;;;13.21;100.00
48652;BME280;34442;52.362;-1.302;2022-10-16T01:01:33;98952.97;;;13.27;100.00
48652;BME280;34442;52.362;-1.302;2022-10-16T01:03:59;98942.31;;;13.15;100.00
48652;BME280;34442;52.362;-1.302;2022-10-16T01:12:13;98955.09;;;13.25;100.00
48652;BME280;34442;52.362;-1.302;2022-10-16T01:14:58;98947.44;;;13.16;100.00
48652;BME280;34442;52.362;-1.302;2022-10-16T01:17:45;98950.00;;;13.28;100.00
48652;BME280;34442;52.362;-1.302;2022-10-16T01:25:45;98971.16;;;13.42;100.00
48652;BME280;34442;52.362;-1.302;2022-10-16T01:28:17;98980.00;;;13.37;100.00
48652;BME280;34442;52.362;-1.302;2022-10-16T01:30:45;98986.16;;;13.27;100.00
48652;BME280;34442;52.362;-1.302;2022-10-16T01:33:18;98999.28;;;13.46;100.00
48652;BME280;34442;52.362;-1.302;2022-10-16T01:35:48;99001.41;;;13.44;100.00
48652;BME280;34442;52.362;-1.302;2022-10-16T01:38:36;98998.06;;;13.31;100.00
48652;BME280;34442;52.362;-1.302;2022-10-16T01:41:18;99008.84;;;13.26;100.00
48652;BME280;34442;52.362;-1.302;2022-10-16T01:43:50;99006.19;;;13.36;100.00
48652;BME280;34442;52.362;-1.302;2022-10-16T01:46:20;99008.38;;;13.39;100.00
48652;BME280;34442;52.362;-1.302;2022-10-16T01:48:48;99008.09;;;13.36;100.00
48652;BME280;34442;52.362;-1.302;2022-10-16T01:51:16;99010.09;;;13.19;100.00
48652;BME280;34442;52.362;-1.302;2022-10-16T01:53:48;99020.63;;;13.20;100.00
48652;BME280;34442;52.362;-1.302;2022-10-16T01:56:17;99028.97;;;13.19;100.00
48652;BME280;34442;52.362;-1.302;2022-10-16T01:59:00;99028.25;;;13.23;100.00
48652;BME280;34442;52.362;-1.302;2022-10-16T02:01:28;99030.94;;;13.23;100.00
48652;BME280;34442;52.362;-1.302;2022-10-16T02:03:57;99030.97;;;13.28;100.00
48652;BME280;34442;52.362;-1.302;2022-10-16T02:06:24;99035.25;;;13.24;100.00
48652;BME280;34442;52.362;-1.302;2022-10-16T02:08:51;99039.06;;;13.28;100.00
48652;BME280;34442;52.362;-1.302;2022-10-16T02:11:17;99034.69;;;13.22;100.00
48652;BME280;34442;52.362;-1.302;2022-10-16T02:13:59;99027.56;;;13.11;100.00
48652;BME280;34442;52.362;-1.302;2022-10-16T02:16:39;99044.59;;;13.16;100.00
48652;BME280;34442;52.362;-1.302;2022-10-16T02:19:06;99055.22;;;13.23;100.00
48652;BME280;34442;52.362;-1.302;2022-10-16T02:21:40;99070.44;;;13.07;100.00
48652;BME280;34442;52.362;-1.302;2022-10-16T02:29:50;99065.28;;;13.06;100.00
48652;BME280;34442;52.362;-1.302;2022-10-16T02:32:21;99075.72;;;12.97;100.00
48652;BME280;34442;52.362;-1.302;2022-10-16T02:34:49;99068.75;;;13.01;100.00
48652;BME280;34442;52.362;-1.302;2022-10-16T02:37:17;99075.78;;;13.02;100.00
48652;BME280;34442;52.362;-1.302;2022-10-16T02:39:43;99081.91;;;12.93;100.00
48652;BME280;34442;52.362;-1.302;2022-10-16T02:42:12;99084.13;;;13.01;100.00
48652;BME280;34442;52.362;-1.302;2022-10-16T02:44:38;99094.34;;;12.99;100.00
48652;BME280;34442;52.362;-1.302;2022-10-16T02:47:04;99090.22;;;12.91;100.00
48652;BME280;34442;52.362;-1.302;2022-10-16T02:49:30;99093.38;;;12.83;100.00
48652;BME280;34442;52.362;-1.302;2022-10-16T02:51:56;99099.56;;;12.83;100.00
48652;BME280;34442;52.362;-1.302;2022-10-16T02:54:22;99093.69;;;12.86;100.00
48652;BME280;34442;52.362;-1.302;2022-10-16T02:56:49;99094.19;;;12.83;100.00
48652;BME280;34442;52.362;-1.302;2022-10-16T02:59:15;99097.13;;;12.82;100.00
48652;BME280;34442;52.362;-1.302;2022-10-16T03:01:41;99093.50;;;12.93;100.00
48652;BME280;34442;52.362;-1.302;2022-10-16T03:04:07;99097.75;;;12.89;100.00
48652;BME280;34442;52.362;-1.302;2022-10-16T03:06:34;99117.72;;;12.88;100.00
48652;BME280;34442;52.362;-1.302;2022-10-16T03:09:00;99121.78;;;12.90;100.00
48652;BME280;34442;52.362;-1.302;2022-10-16T03:11:26;99120.03;;;12.79;100.00
48652;BME280;34442;52.362;-1.302;2022-10-16T03:13:52;99127.06;;;12.80;100.00
48652;BME280;34442;52.362;-1.302;2022-10-16T03:16:18;99130.56;;;12.81;100.00
48652;BME280;34442;52.362;-1.302;2022-10-16T03:18:48;99133.59;;;12.84;100.00
48652;BME280;34442;52.362;-1.302;2022-10-16T03:21:15;99133.00;;;12.82;100.00
48652;BME280;34442;52.362;-1.302;2022-10-16T03:23:41;99149.47;;;12.81;100.00
48652;BME280;34442;52.362;-1.302;2022-10-16T03:26:07;99144.50;;;12.73;100.00
48652;BME280;34442;52.362;-1.302;2022-10-16T03:28:33;99142.13;;;12.76;100.00
48652;BME280;34442;52.362;-1.302;2022-10-16T03:30:59;99154.59;;;12.82;100.00
48652;BME280;34442;52.362;-1.302;2022-10-16T03:33:25;99155.16;;;12.84;100.00
48652;BME280;34442;52.362;-1.302;2022-10-16T03:35:52;99161.38;;;12.85;100.00
48652;BME280;34442;52.362;-1.302;2022-10-16T03:38:19;99161.06;;;12.81;100.00
48652;BME280;34442;52.362;-1.302;2022-10-16T03:40:46;99163.81;;;12.86;100.00
48652;BME280;34442;52.362;-1.302;2022-10-16T03:43:12;99172.66;;;12.82;100.00
48652;BME280;34442;52.362;-1.302;2022-10-16T03:45:38;99174.22;;;12.78;100.00
48652;BME280;34442;52.362;-1.302;2022-10-16T03:48:04;99181.25;;;12.79;100.00
48652;BME280;34442;52.362;-1.302;2022-10-16T03:50:30;99185.28;;;12.76;100.00
48652;BME280;34442;52.362;-1.302;2022-10-16T03:52:56;99185.28;;;12.76;100.00
48652;BME280;34442;52.362;-1.302;2022-10-16T03:55:22;99191.47;;;12.77;100.00
48652;BME280;34442;52.362;-1.302;2022-10-16T03:57:48;99193.59;;;12.75;100.00
48652;BME280;34442;52.362;-1.302;2022-10-16T04:00:14;99198.19;;;12.74;100.00
48652;BME280;34442;52.362;-1.302;2022-10-16T04:02:40;99206.22;;;12.69;100.00
48652;BME280;34442;52.362;-1.302;2022-10-16T04:05:07;99205.94;;;12.71;100.00
48652;BME280;34442;52.362;-1.302;2022-10-16T04:07:33;99220.19;;;12.66;100.00
48652;BME280;34442;52.362;-1.302;2022-10-16T04:09:59;99225.34;;;12.68;100.00
48652;BME280;34442;52.362;-1.302;2022-10-16T04:12:26;99226.47;;;12.72;100.00
48652;BME280;34442;52.362;-1.302;2022-10-16T04:14:52;99230.09;;;12.60;100.00
48652;BME280;34442;52.362;-1.302;2022-10-16T04:17:18;99226.31;;;12.61;100.00
48652;BME280;34442;52.362;-1.302;2022-10-16T04:19:44;99233.66;;;12.66;100.00
48652;BME280;34442;52.362;-1.302;2022-10-16T04:22:10;99231.72;;;12.61;100.00
48652;BME280;34442;52.362;-1.302;2022-10-16T04:24:36;99242.81;;;12.65;100.00
48652;BME280;34442;52.362;-1.302;2022-10-16T04:27:02;99241.38;;;12.57;100.00
48652;BME280;34442;52.362;-1.302;2022-10-16T04:29:28;99267.84;;;12.60;100.00
48652;BME280;34442;52.362;-1.302;2022-10-16T04:31:54;99267.50;;;12.57;100.00
48652;BME280;34442;52.362;-1.302;2022-10-16T04:34:20;99278.84;;;12.59;100.00
48652;BME280;34442;52.362;-1.302;2022-10-16T04:36:49;99278.84;;;12.59;100.00
48652;BME280;34442;52.362;-1.302;2022-10-16T04:39:16;99292.25;;;12.54;100.00
48652;BME280;34442;52.362;-1.302;2022-10-16T04:41:42;99288.00;;;12.58;100.00
48652;BME280;34442;52.362;-1.302;2022-10-16T04:44:08;99292.91;;;12.61;100.00
48652;BME280;34442;52.362;-1.302;2022-10-16T04:46:34;99302.81;;;12.55;100.00
48652;BME280;34442;52.362;-1.302;2022-10-16T04:49:00;99309.34;;;12.59;100.00
48652;BME280;34442;52.362;-1.302;2022-10-16T04:51:26;99302.31;;;12.58;100.00
48652;BME280;34442;52.362;-1.302;2022-10-16T04:53:53;99300.34;;;12.54;100.00
48652;BME280;34442;52.362;-1.302;2022-10-16T04:56:20;99313.34;;;12.57;100.00
48652;BME280;34442;52.362;-1.302;2022-10-16T04:58:47;99304.59;;;12.50;100.00
48652;BME280;34442;52.362;-1.302;2022-10-16T05:01:13;99311.47;;;12.57;100.00
48652;BME280;34442;52.362;-1.302;2022-10-16T05:03:39;99320.84;;;12.55;100.00
48652;BME280;34442;52.362;-1.302;2022-10-16T05:06:06;99327.63;;;12.57;100.00
48652;BME280;34442;52.362;-1.302;2022-10-16T05:08:32;99336.53;;;12.58;100.00
48652;BME280;34442;52.362;-1.302;2022-10-16T05:10:58;99351.00;;;12.52;100.00
48652;BME280;34442;52.362;-1.302;2022-10-16T05:13:24;99349.88;;;12.48;100.00
48652;BME280;34442;52.362;-1.302;2022-10-16T05:15:50;99359.00;;;12.47;100.00
48652;BME280;34442;52.362;-1.302;2022-10-16T05:18:17;99358.19;;;12.46;100.00
48652;BME280;34442;52.362;-1.302;2022-10-16T05:20:43;99367.59;;;12.44;100.00
48652;BME280;34442;52.362;-1.302;2022-10-16T05:23:09;99368.16;;;12.46;100.00
48652;BME280;34442;52.362;-1.302;2022-10-16T05:25:36;99372.72;;;12.45;100.00
48652;BME280;34442;52.362;-1.302;2022-10-16T05:28:02;99377.78;;;12.41;100.00
48652;BME280;34442;52.362;-1.302;2022-10-16T05:30:28;99390.19;;;12.42;100.00
48652;BME280;34442;52.362;-1.302;2022-10-16T05:32:54;99385.69;;;12.31;100.00
48652;BME280;34442;52.362;-1.302;2022-10-16T05:35:21;99394.84;;;12.30;100.00
48652;BME280;34442;52.362;-1.302;2022-10-16T05:37:47;99401.63;;;12.33;100.00
48652;BME280;34442;52.362;-1.302;2022-10-16T05:40:14;99402.44;;;12.33;100.00
48652;BME280;34442;52.362;-1.302;2022-10-16T05:42:40;99411.03;;;12.30;100.00
48652;BME280;34442;52.362;-1.302;2022-10-16T05:45:07;99409.88;;;12.26;100.00
48652;BME280;34442;52.362;-1.302;2022-10-16T05:47:35;99418.53;;;12.28;100.00
48652;BME280;34442;52.362;-1.302;2022-10-16T05:50:01;99427.66;;;12.27;100.00
48652;BME280;34442;52.362;-1.302;2022-10-16T05:52:27;99435.75;;;12.27;100.00
48652;BME280;34442;52.362;-1.302;2022-10-16T05:54:53;99435.75;;;12.27;100.00
48652;BME280;34442;52.362;-1.302;2022-10-16T05:57:19;99436.66;;;12.33;100.00
48652;BME280;34442;52.362;-1.302;2022-10-16T05:59:45;99443.94;;;12.32;100.00
48652;BME280;34442;52.362;-1.302;2022-10-16T06:02:12;99456.34;;;12.33;100.00
48652;BME280;34442;52.362;-1.302;2022-10-16T06:04:39;99450.00;;;12.39;100.00
48652;BME280;34442;52.362;-1.302;2022-10-16T06:07:05;99456.53;;;12.44;100.00
48652;BME280;34442;52.362;-1.302;2022-10-16T06:09:31;99453.25;;;12.41;100.00
48652;BME280;34442;52.362;-1.302;2022-10-16T06:11:57;99471.56;;;12.39;100.00
48652;BME280;34442;52.362;-1.302;2022-10-16T06:14:23;99478.25;;;12.37;100.00
48652;BME280;34442;52.362;-1.302;2022-10-16T06:16:49;99474.69;;;12.20;100.00
48652;BME280;34442;52.362;-1.302;2022-10-16T06:19:15;99484.34;;;12.32;100.00
48652;BME280;34442;52.362;-1.302;2022-10-16T06:21:41;99487.53;;;12.29;100.00
48652;BME280;34442;52.362;-1.302;2022-10-16T06:24:08;99490.13;;;12.24;100.00
48652;BME280;34442;52.362;-1.302;2022-10-16T06:26:33;99498.94;;;12.20;100.00
48652;BME280;34442;52.362;-1.302;2022-10-16T06:29:00;99499.19;;;12.18;100.00
48652;BME280;34442;52.362;-1.302;2022-10-16T06:31:27;99505.84;;;12.15;100.00
48652;BME280;34442;52.362;-1.302;2022-10-16T06:33:57;99501.28;;;12.16;100.00
48652;BME280;34442;52.362;-1.302;2022-10-16T06:36:23;99508.19;;;12.12;100.00
48652;BME280;34442;52.362;-1.302;2022-10-16T06:38:50;99512.88;;;12.16;100.00
48652;BME280;34442;52.362;-1.302;2022-10-16T06:41:18;99521.19;;;12.15;100.00
48652;BME280;34442;52.362;-1.302;2022-10-16T06:43:46;99526.34;;;12.16;100.00
48652;BME280;34442;52.362;-1.302;2022-10-16T06:46:14;99536.31;;;12.16;100.00
48652;BME280;34442;52.362;-1.302;2022-10-16T06:48:41;99541.44;;;12.17;100.00
48652;BME280;34442;52.362;-1.302;2022-10-16T06:51:15;99543.91;;;12.19;100.00
48652;BME280;34442;52.362;-1.302;2022-10-16T06:53:47;99543.91;;;12.31;100.00
48652;BME280;34442;52.362;-1.302;2022-10-16T06:56:21;99553.28;;;12.16;100.00
48652;BME280;34442;52.362;-1.302;2022-10-16T06:58:48;99553.97;;;12.24;100.00
48652;BME280;34442;52.362;-1.302;2022-10-16T07:01:16;99552.69;;;12.26;100.00
48652;BME280;34442;52.362;-1.302;2022-10-16T07:03:44;99555.88;;;12.23;100.00
48652;BME280;34442;52.362;-1.302;2022-10-16T07:06:12;99559.38;;;12.24;100.00
48652;BME280;34442;52.362;-1.302;2022-10-16T07:08:41;99564.66;;;12.30;100.00
48652;BME280;34442;52.362;-1.302;2022-10-16T07:11:09;99571.06;;;12.29;100.00
48652;BME280;34442;52.362;-1.302;2022-10-16T07:13:37;99577.63;;;12.33;100.00
48652;BME280;34442;52.362;-1.302;2022-10-16T07:16:13;99574.09;;;12.33;100.00
48652;BME280;34442;52.362;-1.302;2022-10-16T07:18:40;99578.31;;;12.40;100.00
48652;BME280;34442;52.362;-1.302;2022-10-16T07:21:10;99585.69;;;12.45;100.00
48652;BME280;34442;52.362;-1.302;2022-10-16T07:23:37;99587.44;;;12.51;100.00
48652;BME280;34442;52.362;-1.302;2022-10-16T07:26:04;99583.53;;;12.59;100.00
48652;BME280;34442;52.362;-1.302;2022-10-16T07:28:31;99600.06;;;12.51;100.00
48652;BME280;34442;52.362;-1.302;2022-10-16T07:31:02;99608.84;;;12.58;100.00
48652;BME280;34442;52.362;-1.302;2022-10-16T07:33:30;99588.91;;;12.59;100.00
48652;BME280;34442;52.362;-1.302;2022-10-16T07:35:56;99595.72;;;12.61;100.00
48652;BME280;34442;52.362;-1.302;2022-10-16T07:38:22;99600.03;;;12.62;100.00
48652;BME280;34442;52.362;-1.302;2022-10-16T07:40:56;99612.16;;;12.60;100.00
48652;BME280;34442;52.362;-1.302;2022-10-16T07:43:22;99614.25;;;12.58;100.00
48652;BME280;34442;52.362;-1.302;2022-10-16T07:45:48;99618.00;;;12.57;100.00
48652;BME280;34442;52.362;-1.302;2022-10-16T07:48:16;99626.81;;;12.52;100.00
48652;BME280;34442;52.362;-1.302;2022-10-16T07:50:42;99622.59;;;12.56;100.00
48652;BME280;34442;52.362;-1.302;2022-10-16T07:53:08;99632.19;;;12.64;100.00
48652;BME280;34442;52.362;-1.302;2022-10-16T07:55:34;99640.63;;;12.68;100.00
48652;BME280;34442;52.362;-1.302;2022-10-16T07:58:00;99655.03;;;12.73;100.00
48652;BME280;34442;52.362;-1.302;2022-10-16T08:00:26;99658.75;;;12.84;100.00
48652;BME280;34442;52.362;-1.302;2022-10-16T08:02:52;99658.59;;;12.90;100.00
48652;BME280;34442;52.362;-1.302;2022-10-16T08:05:18;99665.06;;;12.89;100.00
48652;BME280;34442;52.362;-1.302;2022-10-16T08:07:50;99668.19;;;12.98;100.00
48652;BME280;34442;52.362;-1.302;2022-10-16T08:10:18;99671.50;;;13.00;100.00
48652;BME280;34442;52.362;-1.302;2022-10-16T08:12:44;99675.19;;;13.11;100.00
48652;BME280;34442;52.362;-1.302;2022-10-16T08:15:10;99681.19;;;13.13;100.00
48652;BME280;34442;52.362;-1.302;2022-10-16T08:17:36;99688.88;;;13.21;100.00
48652;BME280;34442;52.362;-1.302;2022-10-16T08:20:03;99685.84;;;13.18;100.00
48652;BME280;34442;52.362;-1.302;2022-10-16T08:22:29;99686.06;;;13.16;100.00
48652;BME280;34442;52.362;-1.302;2022-10-16T08:24:55;99688.56;;;13.18;100.00
48652;BME280;34442;52.362;-1.302;2022-10-16T08:27:21;99698.28;;;13.19;100.00
48652;BME280;34442;52.362;-1.302;2022-10-16T08:29:48;99688.41;;;13.24;100.00
48652;BME280;34442;52.362;-1.302;2022-10-16T08:32:15;99699.34;;;13.29;100.00
48652;BME280;34442;52.362;-1.302;2022-10-16T08:34:41;99710.69;;;13.31;100.00
48652;BME280;34442;52.362;-1.302;2022-10-16T08:37:07;99718.88;;;13.36;100.00
48652;BME280;34442;52.362;-1.302;2022-10-16T08:39:36;99719.47;;;13.38;100.00
48652;BME280;34442;52.362;-1.302;2022-10-16T08:45:36;99729.41;;;13.50;100.00
48652;BME280;34442;52.362;-1.302;2022-10-16T08:50:52;99732.88;;;13.62;100.00
48652;BME280;34442;52.362;-1.302;2022-10-16T08:53:40;99730.25;;;13.67;100.00
48652;BME280;34442;52.362;-1.302;2022-10-16T08:56:08;99741.41;;;13.71;100.00
48652;BME280;34442;52.362;-1.302;2022-10-16T08:58:34;99745.78;;;13.60;100.00
48652;BME280;34442;52.362;-1.302;2022-10-16T09:01:03;99759.50;;;13.70;100.00
48652;BME280;34442;52.362;-1.302;2022-10-16T09:12:03;99769.34;;;13.93;100.00
48652;BME280;34442;52.362;-1.302;2022-10-16T09:17:27;99771.41;;;14.03;100.00
48652;BME280;34442;52.362;-1.302;2022-10-16T09:20:13;99771.72;;;14.06;100.00
48652;BME280;34442;52.362;-1.302;2022-10-16T09:22:41;99776.09;;;14.07;100.00
48652;BME280;34442;52.362;-1.302;2022-10-16T09:25:20;99780.84;;;14.17;100.00
48652;BME280;34442;52.362;-1.302;2022-10-16T09:27:48;99787.00;;;14.12;100.00
48652;BME280;34442;52.362;-1.302;2022-10-16T09:30:18;99786.25;;;14.17;100.00
48652;BME280;34442;52.362;-1.302;2022-10-16T09:32:46;99783.22;;;14.13;100.00
48652;BME280;34442;52.362;-1.302;2022-10-16T09:35:17;99793.22;;;14.13;100.00
48652;BME280;34442;52.362;-1.302;2022-10-16T09:37:45;99788.88;;;14.12;100.00
48652;BME280;34442;52.362;-1.302;2022-10-16T09:40:36;99789.91;;;14.11;100.00
48652;BME280;34442;52.362;-1.302;2022-10-16T09:46:06;99784.53;;;14.28;100.00
48652;BME280;34442;52.362;-1.302;2022-10-16T09:48:44;99786.31;;;14.22;100.00
48652;BME280;34442;52.362;-1.302;2022-10-16T09:51:23;99789.84;;;14.23;100.00
48652;BME280;34442;52.362;-1.302;2022-10-16T09:53:58;99784.69;;;14.21;100.00
48652;BME280;34442;52.362;-1.302;2022-10-16T09:56:29;99785.78;;;14.20;100.00
48652;BME280;34442;52.362;-1.302;2022-10-16T09:58:58;99794.75;;;14.09;100.00
48652;BME280;34442;52.362;-1.302;2022-10-16T10:01:31;99786.25;;;14.17;100.00
48652;BME280;34442;52.362;-1.302;2022-10-16T10:04:01;99784.09;;;14.19;100.00
48652;BME280;34442;52.362;-1.302;2022-10-16T10:06:34;99782.81;;;14.22;100.00
48652;BME280;34442;52.362;-1.302;2022-10-16T10:09:06;99774.69;;;14.22;100.00
48652;BME280;34442;52.362;-1.302;2022-10-16T10:11:42;99774.38;;;14.18;100.00
48652;BME280;34442;52.362;-1.302;2022-10-16T10:16:46;99781.72;;;14.23;100.00
48652;BME280;34442;52.362;-1.302;2022-10-16T10:19:18;99779.13;;;14.28;100.00
48652;BME280;34442;52.362;-1.302;2022-10-16T10:21:44;99771.66;;;14.35;100.00
48652;BME280;34442;52.362;-1.302;2022-10-16T10:24:12;99769.28;;;14.38;100.00
48652;BME280;34442;52.362;-1.302;2022-10-16T10:26:41;99778.53;;;14.43;100.00
48652;BME280;34442;52.362;-1.302;2022-10-16T10:32:12;99783.63;;;14.56;100.00
48652;BME280;34442;52.362;-1.302;2022-10-16T10:34:57;99788.16;;;14.50;100.00
48652;BME280;34442;52.362;-1.302;2022-10-16T10:37:51;99802.63;;;14.27;100.00
48652;BME280;34442;52.362;-1.302;2022-10-16T10:40:28;99802.75;;;14.66;93.46
48652;BME280;34442;52.362;-1.302;2022-10-16T10:43:26;99803.06;;;14.70;98.04
48652;BME280;34442;52.362;-1.302;2022-10-16T10:46:03;99813.88;;;14.86;100.00
48652;BME280;34442;52.362;-1.302;2022-10-16T10:51:04;99809.41;;;14.97;100.00
48652;BME280;34442;52.362;-1.302;2022-10-16T10:53:47;99812.38;;;14.96;100.00
48652;BME280;34442;52.362;-1.302;2022-10-16T11:07:54;99807.09;;;15.06;99.49
48652;BME280;34442;52.362;-1.302;2022-10-16T11:10:27;99804.69;;;15.09;100.00
48652;BME280;34442;52.362;-1.302;2022-10-16T11:13:05;99796.91;;;15.13;98.83
48652;BME280;34442;52.362;-1.302;2022-10-16T11:15:39;99798.47;;;15.09;99.84
48652;BME280;34442;52.362;-1.302;2022-10-16T11:18:15;99803.13;;;15.13;98.65
48652;BME280;34442;52.362;-1.302;2022-10-16T11:20:50;99798.72;;;15.07;98.21
48652;BME280;34442;52.362;-1.302;2022-10-16T11:23:31;99798.84;;;15.18;96.58
48652;BME280;34442;52.362;-1.302;2022-10-16T11:26:04;99793.13;;;15.14;98.69
48652;BME280;34442;52.362;-1.302;2022-10-16T11:28:42;99806.22;;;15.22;96.80
48652;BME280;34442;52.362;-1.302;2022-10-16T11:31:43;99796.22;;;15.23;90.82
48652;BME280;34442;52.362;-1.302;2022-10-16T11:34:48;99799.38;;;15.14;90.43
48652;BME280;34442;52.362;-1.302;2022-10-16T11:37:23;99799.38;;;15.14;94.47
48652;BME280;34442;52.362;-1.302;2022-10-16T11:39:54;99806.75;;;15.19;96.87
48652;BME280;34442;52.362;-1.302;2022-10-16T11:42:29;99786.72;;;15.20;96.30
48652;BME280;34442;52.362;-1.302;2022-10-16T11:50:45;99785.88;;;15.42;92.64
48652;BME280;34442;52.362;-1.302;2022-10-16T11:55:52;99789.41;;;15.42;96.58
48652;BME280;34442;52.362;-1.302;2022-10-16T11:58:32;99793.50;;;15.45;91.65
48652;BME280;34442;52.362;-1.302;2022-10-16T12:03:42;99789.28;;;15.54;95.18
48652;BME280;34442;52.362;-1.302;2022-10-16T12:08:38;99786.88;;;15.57;97.07
48652;BME280;34442;52.362;-1.302;2022-10-16T12:11:33;99784.31;;;15.46;95.91
48652;BME280;34442;52.362;-1.302;2022-10-16T12:16:38;99795.72;;;15.48;97.54
48652;BME280;34442;52.362;-1.302;2022-10-16T12:19:24;99796.91;;;15.57;92.09
48652;BME280;34442;52.362;-1.302;2022-10-16T12:21:52;99803.44;;;15.61;96.13
48652;BME280;34442;52.362;-1.302;2022-10-16T12:24:35;99797.28;;;15.66;92.25
48652;BME280;34442;52.362;-1.302;2022-10-16T12:27:04;99795.47;;;15.27;98.47
48652;BME280;34442;52.362;-1.302;2022-10-16T12:29:39;99790.34;;;15.53;93.65
48652;BME280;34442;52.362;-1.302;2022-10-16T12:32:31;99795.31;;;15.61;89.52
48652;BME280;34442;52.362;-1.302;2022-10-16T12:34:59;99796.72;;;15.42;96.12
48652;BME280;34442;52.362;-1.302;2022-10-16T12:37:36;99799.59;;;15.57;91.37
48652;BME280;34442;52.362;-1.302;2022-10-16T12:40:23;99797.44;;;15.59;91.77
48652;BME280;34442;52.362;-1.302;2022-10-16T12:42:51;99794.75;;;15.59;95.27
48652;BME280;34442;52.362;-1.302;2022-10-16T12:45:31;99792.03;;;15.59;91.32
48652;BME280;34442;52.362;-1.302;2022-10-16T12:48:00;99803.41;;;15.56;94.73
48652;BME280;34442;52.362;-1.302;2022-10-16T12:52:54;99798.03;;;15.61;94.81
48652;BME280;34442;52.362;-1.302;2022-10-16T12:55:22;99796.47;;;15.43;95.67
48652;BME280;34442;52.362;-1.302;2022-10-16T12:58:12;99797.16;;;15.33;89.82
48652;BME280;34442;52.362;-1.302;2022-10-16T13:01:02;99786.59;;;15.32;96.98
48652;BME280;34442;52.362;-1.302;2022-10-16T13:06:47;99801.50;;;15.34;94.77
48652;BME280;34442;52.362;-1.302;2022-10-16T13:09:40;99793.31;;;15.29;91.28
48652;BME280;34442;52.362;-1.302;2022-10-16T13:17:20;99805.16;;;15.67;97.37
48652;BME280;34442;52.362;-1.302;2022-10-16T13:25:23;99797.06;;;15.94;94.18
48652;BME280;34442;52.362;-1.302;2022-10-16T13:28:01;99791.81;;;15.87;96.03
48652;BME280;34442;52.362;-1.302;2022-10-16T13:30:29;99790.47;;;15.85;97.85
48652;BME280;34442;52.362;-1.302;2022-10-16T13:33:13;99785.84;;;15.85;97.25
48652;BME280;34442;52.362;-1.302;2022-10-16T13:35:55;99780.47;;;15.91;97.48
48652;BME280;34442;52.362;-1.302;2022-10-16T13:38:23;99772.66;;;15.94;99.04
48652;BME280;34442;52.362;-1.302;2022-10-16T13:43:21;99771.72;;;15.83;99.75
48652;BME280;34442;52.362;-1.302;2022-10-16T13:46:00;99784.69;;;15.76;99.33
48652;BME280;34442;52.362;-1.302;2022-10-16T13:48:28;99783.03;;;15.75;100.00
48652;BME280;34442;52.362;-1.302;2022-10-16T13:51:17;99784.97;;;15.80;98.12
48652;BME280;34442;52.362;-1.302;2022-10-16T13:53:45;99777.88;;;15.74;100.00
48652;BME280;34442;52.362;-1.302;2022-10-16T13:56:16;99779.19;;;15.71;100.00
48652;BME280;34442;52.362;-1.302;2022-10-16T13:58:43;99775.84;;;15.64;100.00
48652;BME280;34442;52.362;-1.302;2022-10-16T14:01:20;99770.78;;;15.68;99.82
48652;BME280;34442;52.362;-1.302;2022-10-16T14:03:49;99769.03;;;15.61;100.00
48652;BME280;34442;52.362;-1.302;2022-10-16T14:06:19;99774.16;;;15.58;100.00
48652;BME280;34442;52.362;-1.302;2022-10-16T14:09:05;99765.47;;;15.56;99.56
48652;BME280;34442;52.362;-1.302;2022-10-16T14:11:33;99762.22;;;15.59;100.00
48652;BME280;34442;52.362;-1.302;2022-10-16T14:14:00;99767.09;;;15.57;100.00
48652;BME280;34442;52.362;-1.302;2022-10-16T14:16:30;99775.72;;;15.54;100.00
48652;BME280;34442;52.362;-1.302;2022-10-16T14:19:01;99764.13;;;15.58;100.00
48652;BME280;34442;52.362;-1.302;2022-10-16T14:21:28;99769.38;;;15.65;100.00
48652;BME280;34442;52.362;-1.302;2022-10-16T14:23:54;99758.53;;;15.65;100.00
48652;BME280;34442;52.362;-1.302;2022-10-16T14:26:25;99762.88;;;15.66;100.00
48652;BME280;34442;52.362;-1.302;2022-10-16T14:29:15;99756.97;;;15.69;97.41
48652;BME280;34442;52.362;-1.302;2022-10-16T14:32:03;99765.59;;;15.66;100.00
48652;BME280;34442;52.362;-1.302;2022-10-16T14:34:32;99757.00;;;15.74;100.00